Time;durP1;ratioP1;P1;durP2;ratioP2;P2;SDS_P1;SDS_P2;PMS_P1;PMS_P2;Temp;Humidity;BMP_temperature;BMP_pressure;BME280_temperature;BME280_humidity;BME280_pressure;Samples;Min_cycle;Max_cycle;Signal;HPM_P1;HPM_P2
2021/04/30 00:01:38;;;;;;;0.60;0.60;;;;;;;1.82;57.79;100719.31;5084835;28;20205;-71
2021/04/30 00:04:06;;;;;;;0.93;0.70;;;;;;;1.85;57.73;100723.66;5082371;28;20253;-72
2021/04/30 00:06:33;;;;;;;83.27;29.80;;;;;;;1.89;57.92;100722.66;5081212;28;20199;-71
2021/04/30 00:09:00;;;;;;;2.10;1.70;;;;;;;1.85;58.20;100728.97;5077468;28;20246;-72
2021/04/30 00:11:27;;;;;;;0.80;0.80;;;;;;;1.84;58.35;100730.75;5088938;28;20217;-71
2021/04/30 00:13:54;;;;;;;0.77;0.60;;;;;;;1.86;58.89;100730.69;5077329;28;20592;-72
2021/04/30 00:16:22;;;;;;;1.07;0.50;;;;;;;1.84;58.34;100730.75;5078710;28;20194;-72
2021/04/30 00:18:50;;;;;;;0.67;0.67;;;;;;;1.74;59.65;100720.47;5081375;28;20662;-72
2021/04/30 00:21:17;;;;;;;1.30;0.60;;;;;;;1.75;59.40;100727.50;5078745;28;20294;-72
2021/04/30 00:23:45;;;;;;;1.53;0.73;;;;;;;1.72;59.86;100727.59;5080153;28;20216;-72
2021/04/30 00:26:12;;;;;;;0.63;0.60;;;;;;;1.69;59.93;100725.94;5076521;28;20203;-72
2021/04/30 00:28:39;;;;;;;1.03;0.60;;;;;;;1.63;61.16;100725.25;5075779;28;20203;-71
2021/04/30 00:31:06;;;;;;;0.93;0.50;;;;;;;1.61;60.20;100724.44;5081981;28;20239;-71
2021/04/30 00:33:33;;;;;;;0.70;0.70;;;;;;;1.53;60.95;100727.31;5084584;28;20229;-72
2021/04/30 00:36:03;;;;;;;0.80;0.60;;;;;;;1.40;62.00;100713.59;5089332;28;20199;-72
2021/04/30 00:38:30;;;;;;;0.57;0.57;;;;;;;1.23;62.02;100692.09;5079447;28;20227;-72
2021/04/30 00:40:57;;;;;;;0.87;0.87;;;;;;;1.44;61.20;100723.16;5078905;28;20257;-72
2021/04/30 00:43:24;;;;;;;0.63;0.63;;;;;;;1.44;60.92;100717.88;5080523;28;20204;-72
2021/04/30 00:45:53;;;;;;;0.40;0.40;;;;;;;1.29;61.39;100691.06;5082953;28;20192;-72
2021/04/30 00:48:20;;;;;;;0.50;0.50;;;;;;;1.33;61.76;100717.34;5082682;28;20563;-72
2021/04/30 00:50:48;;;;;;;1.30;0.60;;;;;;;1.31;61.71;100713.91;5079636;28;20198;-72
2021/04/30 00:53:16;;;;;;;0.43;0.43;;;;;;;1.18;61.81;100696.63;5084658;28;20195;-71
2021/04/30 00:55:44;;;;;;;0.83;0.47;;;;;;;1.26;61.86;100712.31;5086648;28;20207;-71
2021/04/30 00:58:11;;;;;;;0.63;0.53;;;;;;;1.18;62.34;100723.94;5075256;28;20865;-72
2021/04/30 01:00:38;;;;;;;0.60;0.60;;;;;;;0.79;62.63;100673.13;5073525;28;20443;-71
2021/04/30 01:03:10;;;;;;;1.03;0.70;;;;;;;1.06;62.92;100726.09;5078033;28;20221;-72
2021/04/30 01:05:38;;;;;;;2.40;0.47;;;;;;;1.05;62.91;100724.38;5084289;28;20203;-72
2021/04/30 01:08:06;;;;;;;0.53;0.53;;;;;;;0.98;63.52;100734.25;5085156;28;20195;-71
2021/04/30 01:10:34;;;;;;;1.97;0.47;;;;;;;0.99;63.13;100728.06;5084130;28;20732;-72
2021/04/30 01:13:03;;;;;;;0.73;0.70;;;;;;;0.96;63.56;100728.16;5086453;28;20573;-72
2021/04/30 01:15:30;;;;;;;0.80;0.80;;;;;;;0.95;63.16;100720.28;5087835;28;20249;-72
2021/04/30 01:17:59;;;;;;;0.40;0.40;;;;;;;0.90;63.77;100721.25;5082521;28;20236;-72
2021/04/30 01:20:27;;;;;;;0.50;0.50;;;;;;;0.83;63.79;100717.03;5082029;28;20198;-72
2021/04/30 01:22:55;;;;;;;0.63;0.63;;;;;;;0.95;63.21;100722.91;5083566;28;20610;-72
2021/04/30 01:25:24;;;;;;;1.97;0.47;;;;;;;0.93;63.07;100723.81;5078990;28;20209;-72
2021/04/30 01:27:52;;;;;;;0.90;0.50;;;;;;;0.95;63.18;100722.91;5073846;28;20195;-72
2021/04/30 01:30:22;;;;;;;1.37;0.97;;;;;;;0.97;62.90;100724.59;5078094;28;20208;-71
2021/04/30 01:32:50;;;;;;;0.67;0.50;;;;;;;0.94;63.45;100729.97;5078819;28;20215;-72
2021/04/30 01:35:19;;;;;;;0.60;0.60;;;;;;;0.90;63.49;100728.31;5072743;28;20191;-72
2021/04/30 01:37:48;;;;;;;1.53;0.47;;;;;;;0.91;63.06;100727.41;5088085;28;20234;-72
2021/04/30 01:40:18;;;;;;;1.33;0.53;;;;;;;0.91;63.09;100722.09;5087549;28;20214;-72
2021/04/30 01:42:57;;;;;;;2.80;0.53;;;;;;;0.85;62.99;100723.16;5075884;28;20700;-71
2021/04/30 01:45:25;;;;;;;1.07;0.40;;;;;;;0.80;63.55;100713.63;5075783;28;20216;-72
2021/04/30 01:47:52;;;;;;;1.27;1.00;;;;;;;0.83;63.44;100724.97;5086044;28;20195;-72
2021/04/30 01:50:19;;;;;;;32.40;13.23;;;;;;;0.79;63.39;100723.34;5072191;28;20255;-71
2021/04/30 01:52:46;;;;;;;1.50;1.40;;;;;;;0.61;63.59;100694.75;5075977;28;20205;-72
2021/04/30 01:55:14;;;;;;;1.27;1.07;;;;;;;0.68;64.47;100708.69;5077923;28;20200;-72
2021/04/30 01:57:47;;;;;;;0.50;0.50;;;;;;;0.70;64.22;100722.72;5084986;28;20203;-73
2021/04/30 02:00:22;;;;;;;0.90;0.70;;;;;;;0.78;64.06;100729.53;5083101;28;20207;-72
2021/04/30 02:02:50;;;;;;;1.60;0.67;;;;;;;0.77;64.44;100727.78;5076195;28;20260;-72
2021/04/30 02:05:18;;;;;;;1.00;0.87;;;;;;;0.75;64.52;100732.25;5082693;28;20199;-72
2021/04/30 02:07:46;;;;;;;0.47;0.43;;;;;;;0.67;64.59;100726.31;5076614;28;20211;-72
2021/04/30 02:10:16;;;;;;;1.13;1.03;;;;;;;0.67;64.69;100726.31;5079816;28;20205;-72
2021/04/30 02:12:47;;;;;;;0.50;0.50;;;;;;;0.65;64.38;100724.63;5076888;28;20210;-72
2021/04/30 02:15:16;;;;;;;2.60;0.90;;;;;;;0.66;64.13;100727.25;5080844;28;20213;-72
2021/04/30 02:17:43;;;;;;;0.47;0.47;;;;;;;0.64;64.62;100729.06;5083619;28;20218;-72
2021/04/30 02:20:12;;;;;;;0.53;0.53;;;;;;;0.61;64.48;100730.00;5085183;28;20689;-72
2021/04/30 02:22:40;;;;;;;0.60;0.60;;;;;;;0.60;64.60;100727.38;5073670;28;20206;-72
2021/04/30 02:25:10;;;;;;;1.17;1.03;;;;;;;0.66;64.45;100726.38;5075712;28;20683;-72
2021/04/30 02:27:37;;;;;;;2.93;1.10;;;;;;;0.57;64.99;100732.75;5080172;28;20205;-72
2021/04/30 02:30:08;;;;;;;2.00;0.50;;;;;;;0.53;65.06;100723.19;5078371;28;20276;-71
2021/04/30 02:32:36;;;;;;;0.53;0.53;;;;;;;0.42;64.62;100701.47;5077354;28;21241;-71
2021/04/30 02:35:05;;;;;;;0.40;0.40;;;;;;;0.51;64.25;100723.22;5075934;28;20233;-71
2021/04/30 02:37:33;;;;;;;4.53;0.97;;;;;;;0.55;64.63;100734.56;5080635;28;20218;-72
2021/04/30 02:40:00;;;;;;;1.60;0.73;;;;;;;0.52;64.59;100730.25;5081406;28;20202;-72
2021/04/30 02:42:27;;;;;;;1.33;0.70;;;;;;;0.53;64.37;100718.75;5072216;28;20206;-71
2021/04/30 02:44:54;;;;;;;1.10;0.80;;;;;;;0.22;64.56;100673.81;5074325;28;20195;-72
2021/04/30 02:47:29;;;;;;;0.70;0.70;;;;;;;0.39;64.68;100709.50;5081218;28;20321;-72
2021/04/30 02:49:56;;;;;;;1.13;0.67;;;;;;;0.40;65.21;100716.50;5085984;28;20194;-72
2021/04/30 02:52:23;;;;;;;2.17;0.77;;;;;;;0.47;65.48;100731.28;5073542;28;20213;-72
2021/04/30 02:54:51;;;;;;;1.07;0.97;;;;;;;0.21;64.83;100682.66;5074763;28;20195;-72
2021/04/30 02:57:18;;;;;;;0.53;0.53;;;;;;;0.45;65.20;100725.16;5077528;28;20206;-72
2021/04/30 02:59:46;;;;;;;0.40;0.40;;;;;;;0.45;65.19;100733.09;5085114;28;20221;-72
2021/04/30 03:02:14;;;;;;;0.50;0.50;;;;;;;0.47;65.34;100736.56;5079850;28;20207;-72
2021/04/30 03:04:42;;;;;;;0.60;0.60;;;;;;;0.43;65.58;100727.00;5079850;28;20298;-72
2021/04/30 03:07:10;;;;;;;0.50;0.50;;;;;;;0.41;66.14;100728.81;5076264;28;20192;-72
2021/04/30 03:09:37;;;;;;;0.93;0.80;;;;;;;0.49;65.32;100732.09;5076784;28;20245;-72
2021/04/30 03:12:05;;;;;;;0.97;0.60;;;;;;;0.49;65.78;100729.47;5078471;28;20217;-72
2021/04/30 03:14:33;;;;;;;0.53;0.37;;;;;;;0.50;66.33;100741.75;5078305;28;20201;-72
2021/04/30 03:17:00;;;;;;;0.70;0.70;;;;;;;0.54;65.71;100727.56;5085114;28;20206;-72
2021/04/30 03:19:27;;;;;;;0.83;0.53;;;;;;;0.52;66.13;100739.94;5085969;28;20236;-72
2021/04/30 03:21:55;;;;;;;4.00;0.90;;;;;;;0.48;66.65;100733.88;5080127;28;20197;-72
2021/04/30 03:24:22;;;;;;;0.83;0.67;;;;;;;0.07;66.53;100661.03;5077856;28;20665;-72
2021/04/30 03:26:49;;;;;;;0.53;0.50;;;;;;;0.47;66.95;100740.06;5088740;28;20197;-71
2021/04/30 03:29:16;;;;;;;3.40;1.00;;;;;;;0.38;67.00;100720.97;5084088;28;20679;-72
2021/04/30 03:31:44;;;;;;;1.30;0.80;;;;;;;0.42;67.52;100735.81;5074483;28;20198;-71
2021/04/30 03:34:11;;;;;;;0.73;0.60;;;;;;;0.46;67.63;100734.81;5090451;28;20194;-72
2021/04/30 03:36:39;;;;;;;76.33;32.67;;;;;;;0.51;68.14;100738.22;5089610;28;20206;-72
2021/04/30 03:39:07;;;;;;;3.60;2.60;;;;;;;0.70;68.32;100739.44;5089808;28;20229;-72
2021/04/30 03:41:35;;;;;;;0.70;0.70;;;;;;;0.91;67.59;100737.97;5085113;28;20317;-72
2021/04/30 03:44:02;;;;;;;1.03;0.90;;;;;;;1.06;67.60;100740.19;5085147;28;20766;-72
2021/04/30 03:46:29;;;;;;;0.67;0.67;;;;;;;1.19;67.68;100730.09;5089323;28;20214;-73
2021/04/30 03:48:57;;;;;;;3.47;0.90;;;;;;;1.40;67.12;100742.69;5082815;28;20674;-72
2021/04/30 03:51:24;;;;;;;1.77;0.90;;;;;;;1.53;67.34;100733.50;5086405;28;20282;-72
2021/04/30 03:53:51;;;;;;;1.07;0.73;;;;;;;1.65;66.65;100731.38;5087170;28;20207;-72
2021/04/30 03:56:19;;;;;;;0.53;0.53;;;;;;;1.74;66.07;100739.88;5088037;28;20910;-72
2021/04/30 03:58:46;;;;;;;1.87;1.23;;;;;;;1.88;65.89;100739.44;5076642;28;20293;-72
2021/04/30 04:01:13;;;;;;;0.70;0.70;;;;;;;2.01;65.64;100740.78;5081809;28;20194;-72
2021/04/30 04:03:40;;;;;;;1.17;0.83;;;;;;;1.89;65.80;100708.56;5081691;28;20206;-71
2021/04/30 04:06:08;;;;;;;1.03;0.90;;;;;;;2.15;65.25;100754.44;5074830;28;20191;-72
2021/04/30 04:08:35;;;;;;;0.93;0.80;;;;;;;2.17;65.48;100741.16;5072040;28;20250;-72
2021/04/30 04:11:02;;;;;;;0.80;0.63;;;;;;;2.38;64.35;100753.66;5075736;28;20413;-72
2021/04/30 04:13:30;;;;;;;1.87;0.53;;;;;;;2.51;64.10;100751.47;5082569;28;20204;-72
2021/04/30 04:16:03;;;;;;;0.70;0.70;;;;;;;2.56;64.24;100741.56;5090294;28;20217;-72
2021/04/30 04:18:30;;;;;;;1.70;0.83;;;;;;;2.65;63.83;100749.19;5085574;28;20228;-72
2021/04/30 04:20:58;;;;;;;4.03;0.70;;;;;;;2.44;63.86;100684.53;5080984;28;21087;-71
2021/04/30 04:23:25;;;;;;;0.50;0.50;;;;;;;2.83;63.52;100730.91;5079177;28;20286;-72
2021/04/30 04:25:53;;;;;;;0.93;0.93;;;;;;;3.07;62.37;100751.22;5081409;28;20201;-71
2021/04/30 04:28:20;;;;;;;3.30;0.57;;;;;;;3.07;62.40;100735.31;5081865;28;20813;-71
2021/04/30 04:30:50;;;;;;;3.03;0.73;;;;;;;3.28;61.93;100753.06;5077110;28;20204;-71
2021/04/30 04:33:17;;;;;;;0.60;0.50;;;;;;;3.43;61.69;100757.81;5086858;28;20201;-72
2021/04/30 04:35:44;;;;;;;1.90;0.80;;;;;;;3.57;60.96;100753.75;5078490;28;20211;-71
2021/04/30 04:38:11;;;;;;;0.57;0.57;;;;;;;3.71;60.62;100765.56;5076163;28;20223;-72
2021/04/30 04:40:38;;;;;;;0.50;0.47;;;;;;;3.88;60.09;100759.56;5075851;28;20208;-71
2021/04/30 04:43:06;;;;;;;0.63;0.57;;;;;;;4.08;60.02;100763.22;5080017;28;20203;-72
2021/04/30 04:45:33;;;;;;;0.43;0.43;;;;;;;4.22;59.29;100760.84;5081921;28;20192;-72
2021/04/30 04:48:01;;;;;;;0.50;0.50;;;;;;;4.37;59.77;100765.56;5076035;28;20193;-72
2021/04/30 04:50:29;;;;;;;0.60;0.60;;;;;;;4.57;58.97;100768.22;5083658;28;20215;-73
2021/04/30 04:52:56;;;;;;;0.70;0.70;;;;;;;4.76;58.15;100764.78;5074652;28;20227;-72
2021/04/30 04:55:23;;;;;;;0.73;0.53;;;;;;;4.93;58.04;100762.25;5081446;28;20644;-72
2021/04/30 04:57:50;;;;;;;0.90;0.40;;;;;;;5.16;56.72;100772.72;5079112;28;20219;-71
2021/04/30 05:00:18;;;;;;;1.43;0.60;;;;;;;5.34;56.79;100771.03;5074231;28;20264;-72
2021/04/30 05:02:45;;;;;;;0.57;0.50;;;;;;;5.46;55.96;100754.47;5110188;27;20197;-72
2021/04/30 05:05:14;;;;;;;0.83;0.60;;;;;;;5.70;55.53;100762.25;5086741;28;20228;-73
2021/04/30 05:07:41;;;;;;;0.60;0.60;;;;;;;5.81;53.14;100766.13;5072819;28;20274;-71
2021/04/30 05:10:09;;;;;;;0.87;0.70;;;;;;;6.08;53.51;100763.09;5084109;28;20324;-71
2021/04/30 05:12:37;;;;;;;2.37;0.90;;;;;;;6.25;53.22;100757.81;5074629;28;20212;-71
2021/04/30 05:15:05;;;;;;;0.70;0.70;;;;;;;6.47;52.37;100766.47;5088931;28;20289;-71
2021/04/30 05:17:32;;;;;;;1.53;0.70;;;;;;;6.53;50.82;100760.81;5072382;28;20852;-71
2021/04/30 05:19:59;;;;;;;0.43;0.43;;;;;;;6.79;51.08;100766.63;5070395;28;20195;-72
2021/04/30 05:22:27;;;;;;;0.53;0.53;;;;;;;6.97;49.69;100771.00;5083040;28;20209;-72
2021/04/30 05:24:54;;;;;;;0.40;0.40;;;;;;;7.12;48.55;100764.88;5083739;28;20281;-72
2021/04/30 05:27:21;;;;;;;1.13;0.60;;;;;;;7.19;48.22;100775.22;5070736;28;20287;-72
2021/04/30 05:29:48;;;;;;;0.60;0.43;;;;;;;6.93;46.35;100761.44;5074188;28;20191;-73
2021/04/30 05:32:17;;;;;;;0.50;0.40;;;;;;;7.08;46.40;100778.47;5091411;28;20527;-71
2021/04/30 05:34:44;;;;;;;0.80;0.70;;;;;;;6.94;45.28;100773.84;5086474;28;20209;-72
2021/04/30 05:37:11;;;;;;;0.30;0.30;;;;;;;7.11;45.99;100768.47;5070790;28;20198;-71
2021/04/30 05:39:39;;;;;;;0.63;0.63;;;;;;;7.29;45.24;100779.09;5084877;28;20216;-72
2021/04/30 05:42:07;;;;;;;0.37;0.37;;;;;;;7.44;45.43;100770.28;5090082;28;20200;-72
2021/04/30 05:44:35;;;;;;;0.60;0.60;;;;;;;7.81;45.48;100784.28;5080905;28;20280;-72
2021/04/30 05:47:02;;;;;;;0.27;0.27;;;;;;;7.56;43.63;100779.44;5086791;28;20278;-71
2021/04/30 05:49:30;;;;;;;0.50;0.50;;;;;;;7.71;42.84;100789.28;5076236;28;20235;-72
2021/04/30 05:51:57;;;;;;;0.40;0.40;;;;;;;7.85;43.94;100770.66;5089060;28;20203;-72
2021/04/30 05:54:24;;;;;;;0.20;0.20;;;;;;;8.03;42.70;100787.50;5090527;28;20195;-71
2021/04/30 05:56:53;;;;;;;0.90;0.40;;;;;;;8.32;42.54;100786.69;5086593;28;20232;-71
2021/04/30 05:59:20;;;;;;;0.20;0.20;;;;;;;8.20;41.37;100786.50;5084264;28;20222;-72
2021/04/30 06:01:47;;;;;;;0.30;0.30;;;;;;;8.45;40.99;100788.69;5083972;28;20609;-71
2021/04/30 06:04:14;;;;;;;0.20;0.20;;;;;;;8.46;41.68;100787.72;5086614;28;20209;-72
2021/04/30 06:06:41;;;;;;;0.47;0.30;;;;;;;8.54;41.16;100790.81;5085062;28;20204;-71
2021/04/30 06:09:08;;;;;;;0.50;0.50;;;;;;;8.33;39.20;100774.19;5084969;28;20318;-71
2021/04/30 06:11:36;;;;;;;0.47;0.47;;;;;;;8.54;39.00;100790.81;5080391;28;20290;-71
2021/04/30 06:14:04;;;;;;;0.30;0.30;;;;;;;8.78;40.51;100794.72;5081641;28;20209;-71
2021/04/30 06:16:32;;;;;;;0.53;0.43;;;;;;;8.89;39.23;100791.41;5087647;28;20213;-72
2021/04/30 06:19:00;;;;;;;0.53;0.50;;;;;;;8.81;39.00;100794.53;5076644;28;20712;-72
2021/04/30 06:21:27;;;;;;;0.50;0.43;;;;;;;8.94;39.69;100795.53;5081885;28;20690;-72
2021/04/30 06:23:54;;;;;;;0.50;0.50;;;;;;;8.99;38.42;100798.81;5075583;28;20198;-72
2021/04/30 06:26:22;;;;;;;0.33;0.33;;;;;;;9.07;39.27;100794.78;5080635;28;20202;-73
2021/04/30 06:28:49;;;;;;;0.30;0.30;;;;;;;9.29;37.42;100798.75;5080595;28;20197;-71
2021/04/30 06:31:17;;;;;;;0.93;0.50;;;;;;;9.23;38.50;100758.06;5079475;28;20233;-71
2021/04/30 06:33:44;;;;;;;0.23;0.23;;;;;;;9.63;37.97;100793.97;5081915;28;20286;-71
2021/04/30 06:36:11;;;;;;;0.30;0.30;;;;;;;9.89;37.38;100793.16;5074503;28;20232;-71
2021/04/30 06:38:39;;;;;;;0.77;0.60;;;;;;;9.64;37.00;100740.25;5077568;28;20227;-71
2021/04/30 06:41:06;;;;;;;0.50;0.50;;;;;;;10.37;37.76;100795.47;5080953;28;20647;-71
2021/04/30 06:43:33;;;;;;;1.50;0.40;;;;;;;10.53;37.44;100796.19;5076419;28;20630;-71
2021/04/30 06:46:00;;;;;;;0.33;0.33;;;;;;;10.69;36.91;100796.00;5076180;28;20645;-72
2021/04/30 06:48:28;;;;;;;0.33;0.33;;;;;;;10.87;37.07;100800.13;5077687;28;20200;-71
2021/04/30 06:50:55;;;;;;;1.13;0.50;;;;;;;11.06;36.95;100797.06;5079211;28;20196;-71
2021/04/30 06:53:23;;;;;;;0.40;0.40;;;;;;;10.98;34.57;100802.06;5075117;28;20211;-71
2021/04/30 06:55:50;;;;;;;0.30;0.30;;;;;;;10.41;33.45;100767.47;5074621;28;20209;-72
2021/04/30 06:58:17;;;;;;;0.40;0.40;;;;;;;10.84;35.18;100800.34;5075346;28;20342;-71
2021/04/30 07:00:45;;;;;;;0.40;0.40;;;;;;;11.00;35.52;100810.88;5076027;28;20685;-72
2021/04/30 07:03:12;;;;;;;0.60;0.60;;;;;;;10.87;35.65;100809.06;5074347;28;20210;-72
2021/04/30 07:05:58;;;;;;;0.43;0.43;;;;;;;10.45;35.65;100804.75;5071485;28;20213;-71
2021/04/30 07:08:25;;;;;;;0.50;0.50;;;;;;;10.30;37.12;100810.25;5077701;28;20713;-72
2021/04/30 07:10:52;;;;;;;0.40;0.40;;;;;;;10.32;38.26;100802.97;5077503;28;20210;-72
2021/04/30 07:13:19;;;;;;;0.67;0.50;;;;;;;10.62;38.48;100805.44;5080989;28;20204;-72
2021/04/30 07:15:47;;;;;;;0.50;0.50;;;;;;;10.43;38.89;100812.03;5076992;28;20609;-72
2021/04/30 07:18:14;;;;;;;0.50;0.50;;;;;;;10.35;38.47;100813.50;5073832;28;20213;-72
2021/04/30 07:20:41;;;;;;;0.60;0.50;;;;;;;10.61;39.06;100807.25;5079714;28;20215;-72
2021/04/30 07:23:12;;;;;;;0.60;0.50;;;;;;;10.57;39.37;100811.97;5081346;28;20194;-72
2021/04/30 07:25:39;;;;;;;0.60;0.50;;;;;;;10.27;39.42;100812.19;5069024;28;20311;-72
2021/04/30 07:28:06;;;;;;;0.50;0.50;;;;;;;10.47;39.99;100808.19;5073963;28;20233;-72
2021/04/30 07:30:34;;;;;;;0.60;0.60;;;;;;;10.66;39.37;100809.63;5071191;28;20273;-72
2021/04/30 07:33:02;;;;;;;0.60;0.50;;;;;;;10.70;39.76;100812.00;5081612;28;20216;-72
2021/04/30 07:35:38;;;;;;;4.30;0.60;;;;;;;10.92;39.92;100803.38;5073569;28;20646;-72
2021/04/30 07:38:06;;;;;;;0.60;0.60;;;;;;;11.11;39.90;100811.91;5075161;28;20201;-71
2021/04/30 07:40:34;;;;;;;0.63;0.60;;;;;;;10.83;40.43;100823.66;5071389;28;20673;-72
2021/04/30 07:43:01;;;;;;;0.87;0.70;;;;;;;10.67;39.87;100797.94;5070114;28;20208;-72
2021/04/30 07:45:28;;;;;;;0.70;0.70;;;;;;;10.88;39.91;100813.47;5070356;28;20201;-72
2021/04/30 07:47:56;;;;;;;0.73;0.50;;;;;;;11.23;40.31;100822.75;5076034;28;20713;-72
2021/04/30 07:50:23;;;;;;;1.30;0.60;;;;;;;11.09;39.56;100813.84;5066881;28;20215;-72
2021/04/30 07:52:50;;;;;;;0.50;0.50;;;;;;;11.35;38.72;100813.84;5077665;28;20207;-72
2021/04/30 07:55:18;;;;;;;0.40;0.40;;;;;;;11.61;38.14;100810.16;5083853;28;20251;-72
2021/04/30 07:57:46;;;;;;;1.03;0.50;;;;;;;12.03;39.21;100808.97;5078763;28;20228;-72
2021/04/30 08:00:14;;;;;;;0.50;0.50;;;;;;;11.72;38.21;100820.19;5078596;28;20676;-72
2021/04/30 08:02:42;;;;;;;0.60;0.60;;;;;;;12.17;38.56;100820.53;5071742;28;20199;-73
2021/04/30 08:05:10;;;;;;;0.73;0.67;;;;;;;12.78;38.09;100821.38;5073126;28;20193;-72
2021/04/30 08:07:38;;;;;;;0.70;0.70;;;;;;;13.32;37.33;100816.31;5067849;28;20300;-72
2021/04/30 08:10:06;;;;;;;0.50;0.50;;;;;;;13.42;36.18;100813.72;5077110;28;20708;-72
2021/04/30 08:12:33;;;;;;;0.97;0.73;;;;;;;13.64;37.09;100816.47;5071310;28;20200;-73
2021/04/30 08:15:01;;;;;;;0.60;0.60;;;;;;;13.90;35.96;100822.47;5086422;28;20202;-72
2021/04/30 08:17:28;;;;;;;0.43;0.43;;;;;;;13.83;35.28;100819.44;5075853;28;20203;-71
2021/04/30 08:19:58;;;;;;;2.20;0.67;;;;;;;13.54;35.21;100815.47;5082879;28;20221;-71
2021/04/30 08:22:25;;;;;;;0.60;0.60;;;;;;;13.48;34.86;100822.22;5084441;28;20565;-71
2021/04/30 08:24:53;;;;;;;0.50;0.40;;;;;;;14.02;34.83;100809.81;5083549;28;20651;-71
2021/04/30 08:27:20;;;;;;;0.60;0.60;;;;;;;14.33;34.33;100810.88;5076113;28;20694;-74
2021/04/30 08:29:48;;;;;;;0.40;0.40;;;;;;;13.87;32.48;100814.63;5090763;28;20275;-74
2021/04/30 08:32:16;;;;;;;0.57;0.53;;;;;;;13.74;33.17;100817.44;5082373;28;20219;-75
2021/04/30 08:34:44;;;;;;;0.80;0.60;;;;;;;13.84;34.61;100748.25;5084041;28;20675;-75
2021/04/30 08:37:12;;;;;;;0.77;0.70;;;;;;;14.42;33.19;100808.28;5070836;28;20579;-75
2021/04/30 08:39:40;;;;;;;0.50;0.50;;;;;;;14.54;33.08;100801.88;5081007;28;20230;-75
2021/04/30 08:42:08;;;;;;;0.47;0.47;;;;;;;13.99;30.93;100806.38;5079595;28;20655;-75
2021/04/30 08:44:37;;;;;;;0.60;0.60;;;;;;;13.63;32.45;100804.81;5079513;28;20333;-75
2021/04/30 08:47:05;;;;;;;0.50;0.50;;;;;;;14.11;33.63;100798.28;5077336;28;20201;-75
2021/04/30 08:49:33;;;;;;;0.90;0.50;;;;;;;14.77;33.76;100807.22;5081664;28;20254;-75
2021/04/30 08:52:00;;;;;;;0.40;0.40;;;;;;;14.83;32.83;100802.16;5081067;28;20232;-75
2021/04/30 08:54:28;;;;;;;0.50;0.30;;;;;;;15.42;32.72;100798.00;5079236;28;20219;-75
2021/04/30 08:57:01;;;;;;;0.60;0.60;;;;;;;15.56;32.26;100805.75;5073299;28;20596;-72
2021/04/30 08:59:29;;;;;;;0.50;0.50;;;;;;;14.86;30.47;100780.25;5076291;28;20239;-72
2021/04/30 09:01:56;;;;;;;0.63;0.50;;;;;;;14.63;30.88;100802.09;5078623;28;20202;-78
2021/04/30 09:04:24;;;;;;;0.50;0.50;;;;;;;13.96;31.00;100800.38;5076204;28;20275;-75
2021/04/30 09:06:52;;;;;;;0.80;0.80;;;;;;;13.70;31.32;100805.19;5082309;28;20198;-75
2021/04/30 09:09:22;;;;;;;0.60;0.43;;;;;;;14.32;32.17;100801.91;5078997;28;20928;-76
2021/04/30 09:11:52;;;;;;;1.03;0.37;;;;;;;14.57;32.02;100787.25;5083934;28;20197;-73
2021/04/30 09:14:26;;;;;;;0.50;0.50;;;;;;;14.94;30.50;100782.28;5076708;28;20197;-76
2021/04/30 09:17:09;;;;;;;0.50;0.50;;;;;;;15.07;30.13;100791.09;5083614;28;20198;-76
2021/04/30 09:19:44;;;;;;;4.53;0.57;;;;;;;15.73;30.29;100785.38;5084568;28;20273;-76
2021/04/30 09:22:12;;;;;;;0.40;0.40;;;;;;;15.31;30.05;100779.16;5092424;28;20674;-76
2021/04/30 09:24:40;;;;;;;0.50;0.50;;;;;;;14.67;29.24;100779.22;5086901;28;20612;-75
2021/04/30 09:27:08;;;;;;;0.43;0.43;;;;;;;13.38;29.70;100717.84;5074130;28;20205;-75
2021/04/30 09:29:37;;;;;;;0.40;0.40;;;;;;;12.78;30.84;100786.34;5079924;28;20203;-76
2021/04/30 09:32:11;;;;;;;0.40;0.40;;;;;;;12.87;31.66;100780.25;5078415;28;20280;-76
2021/04/30 09:34:41;;;;;;;0.70;0.70;;;;;;;13.30;31.40;100794.84;5086467;28;20258;-75
2021/04/30 09:37:11;;;;;;;2.30;0.60;;;;;;;12.72;32.36;100753.50;5082013;28;20558;-75
2021/04/30 09:39:53;;;;;;;0.60;0.60;;;;;;;12.87;33.73;100786.50;5077179;28;20214;-74
2021/04/30 09:42:21;;;;;;;0.60;0.60;;;;;;;13.30;34.72;100770.56;5080087;28;20200;-75
2021/04/30 09:44:50;;;;;;;0.77;0.70;;;;;;;13.50;34.15;100787.03;5079347;28;20566;-74
2021/04/30 09:47:21;;;;;;;0.50;0.50;;;;;;;13.36;33.40;100794.34;5077300;28;20403;-75
2021/04/30 09:49:50;;;;;;;1.97;0.47;;;;;;;13.12;33.56;100798.94;5084881;28;20255;-75
2021/04/30 09:52:19;;;;;;;0.57;0.40;;;;;;;13.00;33.39;100795.34;5081335;28;20197;-75
2021/04/30 09:54:46;;;;;;;10.00;0.60;;;;;;;12.88;34.19;100787.38;5072675;28;20241;-75
2021/04/30 09:57:16;;;;;;;0.50;0.50;;;;;;;12.74;33.94;100791.97;5072355;28;20204;-75
2021/04/30 09:59:54;;;;;;;1.37;0.60;;;;;;;12.71;35.01;100794.88;5070509;28;20223;-75
2021/04/30 10:02:23;;;;;;;0.63;0.63;;;;;;;12.70;34.85;100776.16;5079219;28;20521;-75
2021/04/30 10:04:51;;;;;;;0.50;0.50;;;;;;;12.53;35.15;100785.50;5083809;28;20563;-75
2021/04/30 10:07:28;;;;;;;0.53;0.53;;;;;;;12.47;35.58;100777.88;5080482;28;20194;-75
2021/04/30 10:10:04;;;;;;;0.70;0.60;;;;;;;12.70;36.04;100798.56;5075209;28;20232;-75
2021/04/30 10:12:33;;;;;;;0.70;0.30;;;;;;;12.10;35.81;100786.00;5072714;28;20199;-74
2021/04/30 10:15:01;;;;;;;1.50;0.77;;;;;;;11.61;35.91;100796.72;5078103;28;20880;-75
2021/04/30 10:17:28;;;;;;;0.40;0.40;;;;;;;11.87;37.10;100786.81;5080650;28;20205;-74
2021/04/30 10:19:57;;;;;;;5.93;0.73;;;;;;;12.28;36.47;100793.72;5076172;28;20225;-74
2021/04/30 10:22:26;;;;;;;0.70;0.70;;;;;;;12.25;36.46;100796.63;5075591;28;20215;-75
2021/04/30 10:25:15;;;;;;;1.70;0.60;;;;;;;12.52;36.21;100797.25;5077505;28;20243;-75
2021/04/30 10:27:45;;;;;;;0.80;0.57;;;;;;;12.63;36.26;100794.63;5100882;28;20207;-75
2021/04/30 10:30:21;;;;;;;2.13;0.70;;;;;;;12.51;35.10;100773.97;5069911;28;20563;-75
2021/04/30 10:32:52;;;;;;;0.73;0.60;;;;;;;13.15;35.74;100798.69;5074314;28;20201;-75
2021/04/30 10:35:27;;;;;;;0.50;0.50;;;;;;;13.65;36.38;100791.19;5080420;28;20273;-74
2021/04/30 10:37:58;;;;;;;0.67;0.67;;;;;;;13.94;34.63;100787.00;5073728;28;20235;-75
2021/04/30 10:40:25;;;;;;;3.03;0.50;;;;;;;13.51;33.00;100788.75;5068450;28;20307;-75
2021/04/30 10:42:53;;;;;;;0.47;0.47;;;;;;;13.58;34.53;100795.38;5080097;28;20688;-74
2021/04/30 10:45:21;;;;;;;1.27;0.60;;;;;;;13.73;34.11;100791.44;5087328;28;20194;-74
2021/04/30 10:48:05;;;;;;;0.60;0.60;;;;;;;13.49;34.33;100758.34;5079751;28;20217;-75
2021/04/30 10:50:33;;;;;;;7.10;0.50;;;;;;;13.10;34.01;100781.16;5081598;28;20223;-74
2021/04/30 10:53:23;;;;;;;0.70;0.70;;;;;;;12.99;34.11;100798.16;5075962;28;20258;-74
2021/04/30 10:55:50;;;;;;;0.57;0.57;;;;;;;12.85;34.60;100791.13;5071714;28;20669;-74
2021/04/30 10:58:35;;;;;;;0.40;0.40;;;;;;;13.02;35.45;100785.31;5081834;28;20256;-74
2021/04/30 11:01:27;;;;;;;0.57;0.50;;;;;;;13.34;34.97;100790.06;5081731;28;20202;-74
2021/04/30 11:04:14;;;;;;;0.43;0.43;;;;;;;13.34;35.03;100788.22;5077109;28;20570;-75
2021/04/30 11:06:44;;;;;;;0.60;0.60;;;;;;;13.69;35.70;100776.47;5100927;28;20547;-74
2021/04/30 11:09:12;;;;;;;0.60;0.60;;;;;;;13.81;36.58;100761.16;5076945;28;20245;-73
2021/04/30 11:11:42;;;;;;;1.40;0.33;;;;;;;13.99;34.25;100779.38;5073130;28;20214;-73
2021/04/30 11:14:34;;;;;;;0.70;0.67;;;;;;;14.19;35.13;100774.22;5088254;28;20245;-74
2021/04/30 11:17:02;;;;;;;0.50;0.50;;;;;;;14.34;33.60;100755.84;5078925;28;20284;-73
2021/04/30 11:19:32;;;;;;;0.47;0.47;;;;;;;14.42;31.47;100750.69;5069432;28;20225;-74
2021/04/30 11:22:11;;;;;;;0.43;0.43;;;;;;;13.50;28.80;100770.84;5073009;28;20199;-75
2021/04/30 11:24:45;;;;;;;0.57;0.57;;;;;;;13.44;31.33;100776.69;5083524;28;20735;-74
2021/04/30 11:27:34;;;;;;;0.37;0.37;;;;;;;13.94;34.42;100740.25;5091965;28;20614;-74
2021/04/30 11:30:27;;;;;;;3.10;0.90;;;;;;;13.86;31.76;100778.69;5081511;28;20207;-74
2021/04/30 11:32:59;;;;;;;0.53;0.53;;;;;;;13.81;32.12;100775.50;5080504;28;20201;-74
2021/04/30 11:35:28;;;;;;;0.80;0.60;;;;;;;13.99;32.87;100779.38;5085330;28;20220;-74
2021/04/30 11:37:57;;;;;;;3.30;0.50;;;;;;;13.74;33.03;100782.34;5090559;28;20206;-73